Time;durP1;ratioP1;P1;durP2;ratioP2;P2;SDS_P1;SDS_P2;PMS_P1;PMS_P2;Temp;Humidity;BMP_temperature;BMP_pressure;BME280_temperature;BME280_humidity;BME280_pressure;Samples;Min_cycle;Max_cycle;Signal;HPM_P1;HPM_P2
2021/12/20 00:01:42;;;;;;;18.77;3.25;;;5.80;99.90;;;;;;5050180;28;20117;-71
2021/12/20 00:04:07;;;;;;;15.25;4.22;;;5.80;99.90;;;;;;5054798;28;20106;-71
2021/12/20 00:06:33;;;;;;;16.65;3.88;;;5.70;99.90;;;;;;5018241;28;20077;-71
2021/12/20 00:08:59;;;;;;;15.27;2.92;;;5.70;99.90;;;;;;5037702;28;20387;-71
2021/12/20 00:11:25;;;;;;;18.17;2.78;;;5.60;99.90;;;;;;5035715;28;20454;-71
2021/12/20 00:13:50;;;;;;;22.38;4.97;;;5.60;99.90;;;;;;5036001;28;20453;-72
2021/12/20 00:16:16;;;;;;;18.77;3.60;;;5.50;99.90;;;;;;5020975;28;20570;-71
2021/12/20 00:18:43;;;;;;;16.35;3.72;;;5.50;99.90;;;;;;5068130;28;20057;-71
2021/12/20 00:21:10;;;;;;;19.48;3.40;;;5.40;99.90;;;;;;5038569;28;20560;-71
2021/12/20 00:23:36;;;;;;;14.32;3.58;;;5.40;99.90;;;;;;5051236;28;20049;-71
2021/12/20 00:26:01;;;;;;;13.73;3.80;;;5.30;99.90;;;;;;5020817;28;20051;-72
2021/12/20 00:28:27;;;;;;;12.30;2.92;;;5.20;99.90;;;;;;5035437;28;20041;-72
2021/12/20 00:30:53;;;;;;;15.98;3.75;;;5.10;99.90;;;;;;5069983;28;20050;-72
2021/12/20 00:33:19;;;;;;;18.40;3.08;;;5.00;99.90;;;;;;5020542;28;20501;-71
2021/12/20 00:35:46;;;;;;;15.18;3.10;;;4.20;99.90;;;;;;5034790;28;20041;-72
2021/12/20 00:40:56;;;;;;;12.07;2.58;;;4.80;99.90;;;;;;5034609;28;20049;-71
2021/12/20 00:43:22;;;;;;;18.83;2.88;;;4.90;99.90;;;;;;5037098;28;20111;-71
2021/12/20 00:45:48;;;;;;;17.33;3.25;;;4.70;99.90;;;;;;5035928;28;20050;-71
2021/12/20 00:48:14;;;;;;;16.15;3.45;;;4.60;99.90;;;;;;5035989;28;20058;-71
2021/12/20 00:50:42;;;;;;;14.85;3.67;;;4.50;99.90;;;;;;5020646;28;20055;-71
2021/12/20 00:53:09;;;;;;;17.67;3.65;;;4.50;99.90;;;;;;5051183;28;20042;-71
2021/12/20 00:55:35;;;;;;;18.10;3.75;;;4.40;99.90;;;;;;5054320;28;20084;-71
2021/12/20 00:58:01;;;;;;;15.43;4.25;;;4.40;99.90;;;;;;5034521;28;20045;-71
2021/12/20 01:00:51;;;;;;;11.82;2.83;;;4.40;99.90;;;;;;5037225;28;20046;-71
2021/12/20 01:03:18;;;;;;;11.70;3.35;;;4.30;99.90;;;;;;5036830;28;20058;-71
2021/12/20 01:05:44;;;;;;;18.30;3.92;;;4.20;99.90;;;;;;5034718;28;20183;-71
2021/12/20 01:08:10;;;;;;;21.63;3.00;;;4.20;99.90;;;;;;5037090;28;20065;-71
2021/12/20 01:10:40;;;;;;;13.95;3.83;;;4.20;99.90;;;;;;5034071;28;20058;-71
2021/12/20 01:13:07;;;;;;;15.10;3.60;;;4.20;99.90;;;;;;5071404;28;20045;-71
2021/12/20 01:15:37;;;;;;;11.93;3.03;;;4.50;99.90;;;;;;5054789;28;20095;-71
2021/12/20 01:18:05;;;;;;;19.85;3.08;;;4.40;99.90;;;;;;5039323;28;20060;-71
2021/12/20 01:20:31;;;;;;;22.17;3.85;;;4.00;99.90;;;;;;5040322;28;20076;-71
2021/12/20 01:22:58;;;;;;;12.80;2.85;;;4.00;99.90;;;;;;5038273;28;20049;-71
2021/12/20 01:25:24;;;;;;;10.88;3.33;;;3.90;99.90;;;;;;5024182;28;20045;-71
2021/12/20 01:27:50;;;;;;;17.20;3.40;;;3.90;99.90;;;;;;5021563;28;20077;-71
2021/12/20 01:30:19;;;;;;;18.70;3.45;;;4.10;99.90;;;;;;5024440;28;20612;-71
2021/12/20 01:32:45;;;;;;;19.88;3.83;;;3.80;99.90;;;;;;5055171;28;20477;-71
2021/12/20 01:35:11;;;;;;;12.63;2.55;;;3.80;99.90;;;;;;5039609;28;20049;-71
2021/12/20 01:37:38;;;;;;;11.95;2.78;;;4.00;99.90;;;;;;5056787;28;20561;-71
2021/12/20 01:40:07;;;;;;;15.55;3.15;;;3.70;99.90;;;;;;5038067;28;20749;-71
2021/12/20 01:42:34;;;;;;;17.85;2.88;;;3.60;99.90;;;;;;5040168;28;20053;-71
2021/12/20 01:45:01;;;;;;;10.05;2.60;;;3.60;99.90;;;;;;5037253;28;20046;-72
2021/12/20 01:47:31;;;;;;;15.15;4.18;;;3.60;99.90;;;;;;5040298;28;20077;-71
2021/12/20 01:50:06;;;;;;;14.70;3.55;;;3.50;99.90;;;;;;5021621;28;20075;-71
2021/12/20 01:52:40;;;;;;;12.45;2.75;;;3.50;99.90;;;;;;5072055;28;20174;-71
2021/12/20 01:55:08;;;;;;;12.30;2.58;;;3.50;99.90;;;;;;5039701;28;20053;-71
2021/12/20 01:57:34;;;;;;;11.07;3.35;;;3.50;99.90;;;;;;5037471;28;20475;-71
2021/12/20 02:00:01;;;;;;;15.18;3.90;;;3.70;99.90;;;;;;5023596;28;20056;-71
2021/12/20 02:02:26;;;;;;;15.75;3.13;;;3.40;99.90;;;;;;5021202;28;20073;-71
2021/12/20 02:05:00;;;;;;;11.20;3.30;;;3.40;99.90;;;;;;5039312;28;20046;-71
2021/12/20 02:07:49;;;;;;;22.42;3.50;;;3.30;99.90;;;;;;5023665;28;20101;-71
2021/12/20 02:10:14;;;;;;;11.50;2.72;;;3.30;99.90;;;;;;5038485;28;20061;-71
2021/12/20 02:12:40;;;;;;;13.52;3.05;;;3.30;99.90;;;;;;5039858;28;20140;-71
2021/12/20 02:15:07;;;;;;;13.98;2.63;;;3.20;99.90;;;;;;5036362;28;20046;-71
2021/12/20 02:17:33;;;;;;;9.45;2.83;;;3.30;99.90;;;;;;5039894;28;20109;-71
2021/12/20 02:20:00;;;;;;;13.13;3.33;;;3.20;99.90;;;;;;5038056;28;20098;-71
2021/12/20 02:22:26;;;;;;;15.98;2.85;;;3.30;99.90;;;;;;5038236;28;20055;-71
2021/12/20 02:24:52;;;;;;;11.50;2.70;;;3.60;99.90;;;;;;5038659;28;20093;-71
2021/12/20 02:27:19;;;;;;;16.20;2.42;;;3.20;99.90;;;;;;5037103;28;20049;-71
2021/12/20 02:30:01;;;;;;;12.65;2.90;;;3.20;99.90;;;;;;5023162;28;20037;-71
2021/12/20 02:37:55;;;;;;;12.52;3.30;;;3.00;99.90;;;;;;5024287;28;20107;-70
2021/12/20 02:40:22;;;;;;;12.93;2.67;;;2.90;99.90;;;;;;5020322;28;20041;-71
2021/12/20 02:42:50;;;;;;;9.60;3.60;;;2.90;99.90;;;;;;5023091;28;20587;-71
2021/12/20 02:45:16;;;;;;;12.27;2.70;;;2.90;99.90;;;;;;5019878;28;20480;-70
2021/12/20 02:47:45;;;;;;;15.73;2.90;;;3.00;99.90;;;;;;5039076;28;20116;-71
2021/12/20 02:50:13;;;;;;;10.07;2.38;;;3.00;99.90;;;;;;5071163;28;20046;-70
2021/12/20 02:52:40;;;;;;;10.25;3.08;;;2.70;99.90;;;;;;5070958;28;20055;-70
2021/12/20 02:55:07;;;;;;;14.77;2.80;;;2.60;99.90;;;;;;5055840;28;20050;-70
2021/12/20 02:57:35;;;;;;;12.98;2.95;;;2.60;99.90;;;;;;5019812;28;20038;-71
2021/12/20 03:00:00;;;;;;;13.38;2.90;;;2.80;99.90;;;;;;5055703;28;20505;-70
2021/12/20 03:02:26;;;;;;;14.60;3.45;;;2.60;99.90;;;;;;5019768;28;20045;-70
2021/12/20 03:04:52;;;;;;;11.23;2.83;;;2.50;99.90;;;;;;5055151;28;20049;-70
2021/12/20 03:07:23;;;;;;;15.68;3.33;;;2.50;99.90;;;;;;5037798;28;20103;-70
2021/12/20 03:09:57;;;;;;;11.32;2.33;;;2.50;99.90;;;;;;5036179;28;20075;-70
2021/12/20 03:12:26;;;;;;;13.95;2.53;;;2.50;99.90;;;;;;5071657;28;20050;-70
2021/12/20 03:14:56;;;;;;;13.18;2.78;;;2.50;99.90;;;;;;5018786;28;20045;-71
2021/12/20 03:17:22;;;;;;;13.05;3.22;;;2.50;99.90;;;;;;5056049;28;20053;-70
2021/12/20 03:19:48;;;;;;;11.98;3.40;;;2.60;99.90;;;;;;5017965;28;20076;-70
2021/12/20 03:22:13;;;;;;;11.57;3.03;;;2.80;99.90;;;;;;5037442;28;20053;-71
2021/12/20 03:24:39;;;;;;;7.85;2.25;;;2.80;99.90;;;;;;5037801;28;20056;-70
2021/12/20 03:27:06;;;;;;;12.98;2.33;;;2.50;99.90;;;;;;5036473;28;20105;-71
2021/12/20 03:29:32;;;;;;;14.50;3.35;;;2.50;99.90;;;;;;5021990;28;20048;-71
2021/12/20 03:31:57;;;;;;;8.40;2.10;;;2.40;99.90;;;;;;5019049;28;20041;-71
2021/12/20 03:34:23;;;;;;;15.20;2.55;;;2.40;99.90;;;;;;5038477;28;20063;-71
2021/12/20 03:36:49;;;;;;;12.48;3.25;;;2.20;99.90;;;;;;5037339;28;20072;-71
2021/12/20 03:39:15;;;;;;;8.48;2.35;;;2.10;99.90;;;;;;5037573;28;20104;-71
2021/12/20 03:41:41;;;;;;;7.85;1.85;;;2.00;99.90;;;;;;5037463;28;20080;-71
2021/12/20 03:44:07;;;;;;;13.52;2.53;;;1.90;99.90;;;;;;5068649;28;20052;-71
2021/12/20 03:46:34;;;;;;;9.45;3.10;;;1.90;99.90;;;;;;5037357;28;20048;-71
2021/12/20 03:49:00;;;;;;;10.45;2.35;;;1.90;99.90;;;;;;5034924;28;20053;-71
2021/12/20 03:51:26;;;;;;;14.73;2.75;;;2.00;99.90;;;;;;5054706;28;20049;-71
2021/12/20 03:53:52;;;;;;;12.82;2.88;;;1.90;99.90;;;;;;5019241;28;20130;-71
2021/12/20 03:56:17;;;;;;;16.40;3.78;;;1.90;99.90;;;;;;5021392;28;20050;-71
2021/12/20 03:58:43;;;;;;;15.95;2.60;;;1.90;99.90;;;;;;5036822;28;20140;-70
2021/12/20 04:01:11;;;;;;;7.53;3.00;;;2.00;99.90;;;;;;5036346;28;20037;-70
2021/12/20 04:03:38;;;;;;;8.70;2.05;;;2.00;99.90;;;;;;5071061;28;20565;-70
2021/12/20 04:06:08;;;;;;;11.13;2.55;;;2.10;99.90;;;;;;5035605;28;20049;-71
2021/12/20 04:08:34;;;;;;;12.10;2.03;;;2.10;99.90;;;;;;5037719;28;20105;-71
2021/12/20 04:11:01;;;;;;;6.28;1.65;;;2.00;99.90;;;;;;5035121;28;20142;-71
2021/12/20 04:13:27;;;;;;;10.07;2.60;;;2.10;99.90;;;;;;5021201;28;20045;-71
2021/12/20 04:15:53;;;;;;;8.60;3.08;;;2.10;99.90;;;;;;5003427;28;20057;-70
2021/12/20 04:18:20;;;;;;;12.80;2.90;;;2.10;99.90;;;;;;5018836;28;20093;-71
2021/12/20 04:20:46;;;;;;;6.28;1.77;;;2.10;99.90;;;;;;5037478;28;20136;-71
2021/12/20 04:23:12;;;;;;;12.43;2.70;;;2.10;99.90;;;;;;5034728;28;20084;-71
2021/12/20 04:25:38;;;;;;;9.15;1.92;;;2.10;99.90;;;;;;5036798;28;20045;-71
2021/12/20 04:28:04;;;;;;;5.75;1.73;;;2.10;99.90;;;;;;5035050;28;20099;-71
2021/12/20 04:30:31;;;;;;;10.38;2.25;;;1.20;99.90;;;;;;5019998;28;20052;-71
2021/12/20 04:32:58;;;;;;;5.82;1.90;;;1.90;99.90;;;;;;5052071;28;20087;-71
2021/12/20 04:35:24;;;;;;;7.07;2.33;;;1.80;99.90;;;;;;5035127;28;20128;-70
2021/12/20 04:37:50;;;;;;;7.72;1.90;;;1.70;99.90;;;;;;5038218;28;20516;-70
2021/12/20 04:40:20;;;;;;;10.13;2.15;;;1.70;99.90;;;;;;5051478;28;20056;-71
2021/12/20 04:42:50;;;;;;;8.70;1.73;;;1.60;99.90;;;;;;5037652;28;20081;-70
2021/12/20 04:45:16;;;;;;;9.02;1.80;;;1.70;99.90;;;;;;5035769;28;20045;-70
2021/12/20 04:47:42;;;;;;;10.13;3.13;;;1.70;99.90;;;;;;5020678;28;20058;-70
2021/12/20 04:50:09;;;;;;;9.77;2.00;;;1.70;99.90;;;;;;5040055;28;20054;-70
2021/12/20 04:52:35;;;;;;;10.93;3.13;;;1.70;99.90;;;;;;5039697;28;20049;-71
2021/12/20 04:55:01;;;;;;;8.15;2.70;;;1.60;99.90;;;;;;5041126;28;20093;-70
2021/12/20 04:57:27;;;;;;;8.52;3.08;;;1.50;99.90;;;;;;5038317;28;20056;-71
2021/12/20 04:59:53;;;;;;;7.68;1.73;;;1.60;99.90;;;;;;5074721;28;20045;-70
2021/12/20 05:02:18;;;;;;;12.65;2.45;;;1.40;99.90;;;;;;5038008;28;20069;-70
2021/12/20 05:04:44;;;;;;;8.60;1.70;;;2.20;99.90;;;;;;5040515;28;20045;-70
2021/12/20 05:07:10;;;;;;;10.35;2.35;;;1.60;99.90;;;;;;5023728;28;20045;-70
2021/12/20 05:09:39;;;;;;;13.52;2.47;;;1.30;99.90;;;;;;5006592;28;20071;-71
2021/12/20 05:12:13;;;;;;;8.73;2.35;;;1.30;99.90;;;;;;5058032;28;20049;-71
2021/12/20 05:14:40;;;;;;;10.15;2.30;;;1.40;99.90;;;;;;5022470;28;20053;-71
2021/12/20 05:17:07;;;;;;;7.43;2.17;;;1.40;99.90;;;;;;5041144;28;20127;-71
2021/12/20 05:19:33;;;;;;;11.18;2.40;;;1.40;99.90;;;;;;5005301;28;20144;-71
2021/12/20 05:21:59;;;;;;;7.13;1.70;;;1.40;99.90;;;;;;5040433;28;20103;-71
2021/12/20 05:24:24;;;;;;;10.70;1.80;;;1.50;99.90;;;;;;5039390;28;20132;-71
2021/12/20 05:26:50;;;;;;;8.77;1.95;;;1.50;99.90;;;;;;5039100;28;20109;-71
2021/12/20 05:29:16;;;;;;;10.90;2.30;;;1.50;99.90;;;;;;5024039;28;20045;-71
2021/12/20 05:31:42;;;;;;;8.02;1.45;;;1.50;99.90;;;;;;5021091;28;20076;-71
2021/12/20 05:34:07;;;;;;;7.00;1.40;;;1.60;99.90;;;;;;5057377;28;20041;-71
2021/12/20 05:36:33;;;;;;;6.57;1.60;;;1.40;99.90;;;;;;5039288;28;20052;-71
2021/12/20 05:38:59;;;;;;;6.95;2.17;;;1.30;99.90;;;;;;5024039;28;20049;-71
2021/12/20 05:41:25;;;;;;;7.65;2.03;;;1.30;99.90;;;;;;5055251;28;20056;-71
2021/12/20 05:43:50;;;;;;;8.98;2.58;;;1.20;99.90;;;;;;5038205;28;20064;-71
2021/12/20 05:46:16;;;;;;;8.80;1.90;;;1.10;99.90;;;;;;5039997;28;20140;-71
2021/12/20 05:48:42;;;;;;;9.35;1.80;;;1.10;99.90;;;;;;5054320;28;20057;-71
2021/12/20 05:51:08;;;;;;;7.50;1.52;;;1.10;99.90;;;;;;5040161;28;20057;-70
2021/12/20 05:53:35;;;;;;;7.20;1.85;;;1.20;99.90;;;;;;5021256;28;20128;-71
2021/12/20 05:56:00;;;;;;;11.82;3.30;;;1.20;99.90;;;;;;5073739;28;20080;-71
2021/12/20 05:58:26;;;;;;;9.80;2.28;;;1.50;99.90;;;;;;5071778;28;20509;-71
2021/12/20 06:00:52;;;;;;;10.55;2.38;;;1.20;99.90;;;;;;5021397;28;20045;-71
2021/12/20 06:03:18;;;;;;;17.92;3.28;;;1.20;99.90;;;;;;5039799;28;20085;-71
2021/12/20 06:05:43;;;;;;;11.98;2.30;;;1.30;99.90;;;;;;5004581;28;20141;-71
2021/12/20 06:08:09;;;;;;;11.48;2.47;;;1.20;99.90;;;;;;5039887;28;20048;-71
2021/12/20 06:10:36;;;;;;;10.18;2.95;;;1.20;99.90;;;;;;5036980;28;20621;-71
2021/12/20 06:13:05;;;;;;;15.60;3.40;;;1.10;99.90;;;;;;5073295;28;20049;-71
2021/12/20 06:15:31;;;;;;;11.30;3.63;;;1.10;99.90;;;;;;5021302;28;20262;-70
2021/12/20 06:17:58;;;;;;;10.48;2.65;;;1.00;99.90;;;;;;5021822;28;20069;-70
2021/12/20 06:20:23;;;;;;;8.02;2.45;;;1.00;99.90;;;;;;5022275;28;20080;-71
2021/12/20 06:22:49;;;;;;;5.30;1.40;;;0.90;99.90;;;;;;5037017;28;20053;-71
2021/12/20 06:25:16;;;;;;;8.70;1.80;;;0.90;99.90;;;;;;5039800;28;20077;-70
2021/12/20 06:27:42;;;;;;;11.93;3.20;;;1.00;99.90;;;;;;5036472;28;20044;-71
2021/12/20 06:30:10;;;;;;;8.25;2.78;;;0.90;99.90;;;;;;5023059;28;20069;-71
2021/12/20 06:32:41;;;;;;;7.95;1.88;;;0.90;99.90;;;;;;5053935;28;20053;-70
2021/12/20 06:35:08;;;;;;;9.95;2.47;;;1.00;99.90;;;;;;5072158;28;20147;-71
2021/12/20 06:37:35;;;;;;;14.43;2.17;;;0.90;99.90;;;;;;5039066;28;20052;-71
2021/12/20 06:40:01;;;;;;;10.48;2.22;;;0.90;99.90;;;;;;5070374;28;20041;-71
2021/12/20 06:42:27;;;;;;;10.13;2.70;;;0.80;99.90;;;;;;5006765;28;20085;-71
2021/12/20 06:44:53;;;;;;;11.60;3.03;;;0.80;99.90;;;;;;5069115;28;20477;-71
2021/12/20 06:47:20;;;;;;;12.80;3.03;;;0.80;99.90;;;;;;5023001;28;20071;-71
2021/12/20 06:49:46;;;;;;;13.10;2.60;;;0.80;99.90;;;;;;5070464;28;20046;-70
2021/12/20 06:52:12;;;;;;;13.35;2.85;;;0.70;99.90;;;;;;5038142;28;20037;-71
2021/12/20 06:54:38;;;;;;;16.05;2.90;;;0.70;99.90;;;;;;5038557;28;20099;-71
2021/12/20 06:57:04;;;;;;;10.07;2.78;;;0.70;99.90;;;;;;5036279;28;20057;-71
2021/12/20 06:59:30;;;;;;;16.30;3.28;;;0.60;99.90;;;;;;5040092;28;20081;-71
2021/12/20 07:01:56;;;;;;;12.07;2.47;;;0.60;99.90;;;;;;5052734;28;20049;-71
2021/12/20 07:04:22;;;;;;;13.35;2.58;;;0.60;99.90;;;;;;5055839;28;20095;-70
2021/12/20 07:06:48;;;;;;;8.98;2.67;;;0.50;99.90;;;;;;5036423;28;20048;-70
2021/12/20 07:09:14;;;;;;;14.48;4.70;;;0.60;99.90;;;;;;5021408;28;20053;-70
2021/12/20 07:11:41;;;;;;;8.57;1.85;;;0.40;99.90;;;;;;5021322;28;20049;-69
2021/12/20 07:14:07;;;;;;;12.13;1.67;;;0.40;99.90;;;;;;5036515;28;21056;-70
2021/12/20 07:16:34;;;;;;;12.20;2.42;;;0.40;99.90;;;;;;5055424;28;20037;-70
2021/12/20 07:19:01;;;;;;;13.23;3.47;;;0.40;99.90;;;;;;5003086;28;20068;-70
2021/12/20 07:21:26;;;;;;;16.33;4.38;;;0.40;99.90;;;;;;5038354;28;20045;-70
2021/12/20 07:23:52;;;;;;;12.98;2.50;;;0.40;99.90;;;;;;5036647;28;20044;-70
2021/12/20 07:26:18;;;;;;;17.45;4.53;;;0.40;99.90;;;;;;5038037;28;20567;-70
2021/12/20 07:28:44;;;;;;;7.80;2.38;;;0.40;99.90;;;;;;5021196;28;20049;-70
2021/12/20 07:31:12;;;;;;;9.90;2.05;;;0.30;99.90;;;;;;5019610;28;20053;-70
2021/12/20 07:33:38;;;;;;;17.50;2.95;;;0.30;99.90;;;;;;5071557;28;20052;-70
2021/12/20 07:36:05;;;;;;;13.60;3.13;;;0.30;99.90;;;;;;5035595;28;20055;-70
2021/12/20 07:38:30;;;;;;;10.15;2.58;;;0.30;99.90;;;;;;5037887;28;20050;-70
2021/12/20 07:40:57;;;;;;;14.60;2.75;;;0.30;99.90;;;;;;5052648;28;20172;-70
2021/12/20 07:43:23;;;;;;;12.05;2.38;;;0.30;99.90;;;;;;5037525;28;20103;-70
2021/12/20 07:45:49;;;;;;;14.18;3.53;;;0.30;99.90;;;;;;5020638;28;20049;-70
2021/12/20 07:48:17;;;;;;;9.55;2.70;;;0.60;99.90;;;;;;5069697;28;20057;-70
2021/12/20 07:50:44;;;;;;;16.75;2.70;;;0.40;99.90;;;;;;5037975;28;20055;-69
2021/12/20 07:53:10;;;;;;;9.35;2.20;;;0.20;99.90;;;;;;5036707;28;20053;-70
2021/12/20 07:55:36;;;;;;;9.02;2.05;;;0.30;99.90;;;;;;5038182;28;20527;-70
2021/12/20 07:58:02;;;;;;;13.88;2.80;;;0.30;99.90;;;;;;5035698;28;20083;-70
2021/12/20 08:00:28;;;;;;;7.68;2.08;;;0.30;99.90;;;;;;5038374;28;20069;-70
2021/12/20 08:02:55;;;;;;;12.57;2.38;;;0.40;99.90;;;;;;5021236;28;20055;-70
2021/12/20 08:05:20;;;;;;;10.98;2.28;;;0.30;99.90;;;;;;5036129;28;20053;-71
2021/12/20 08:07:50;;;;;;;9.80;2.50;;;0.20;99.90;;;;;;5037567;28;20383;-70
2021/12/20 08:10:17;;;;;;;15.10;3.85;;;0.20;99.90;;;;;;5034912;28;20053;-70
2021/12/20 08:12:44;;;;;;;10.77;3.22;;;0.10;99.90;;;;;;5036936;28;20560;-70
2021/12/20 08:15:10;;;;;;;10.48;2.72;;;0.00;99.90;;;;;;5034156;28;20049;-70
2021/12/20 08:17:36;;;;;;;7.95;2.65;;;0.30;99.90;;;;;;5014949;28;20133;-70
2021/12/20 08:20:03;;;;;;;9.57;2.63;;;0.00;99.90;;;;;;5053554;28;20057;-70
2021/12/20 08:22:29;;;;;;;10.43;2.05;;;-0.10;99.90;;;;;;5090496;28;20409;-70
2021/12/20 08:24:55;;;;;;;8.20;2.30;;;-0.10;99.90;;;;;;5073544;28;20041;-70
2021/12/20 08:27:20;;;;;;;6.28;1.67;;;0.70;99.90;;;;;;5070946;28;20053;-70
2021/12/20 08:29:46;;;;;;;6.68;2.58;;;0.00;99.90;;;;;;5034226;28;20132;-70
2021/12/20 08:32:12;;;;;;;10.65;2.53;;;0.00;99.90;;;;;;5050129;28;20093;-70
2021/12/20 08:34:38;;;;;;;8.75;2.38;;;0.10;99.90;;;;;;5035494;28;20044;-70
2021/12/20 08:37:03;;;;;;;9.95;2.50;;;0.10;99.90;;;;;;5052079;28;20084;-69
2021/12/20 08:39:31;;;;;;;15.38;2.67;;;0.50;99.90;;;;;;5002187;28;20570;-70
2021/12/20 08:41:58;;;;;;;10.43;2.15;;;0.20;99.90;;;;;;5038310;28;20145;-70
2021/12/20 08:44:25;;;;;;;9.07;2.15;;;0.50;99.90;;;;;;5034243;28;20038;-70
2021/12/20 08:46:52;;;;;;;9.10;2.33;;;0.30;99.90;;;;;;5036718;28;20569;-70
2021/12/20 08:49:18;;;;;;;10.60;2.28;;;0.40;99.90;;;;;;5034557;28;20038;-70
2021/12/20 08:51:45;;;;;;;10.52;2.60;;;0.40;99.90;;;;;;5029685;28;20049;-70
2021/12/20 08:54:12;;;;;;;8.07;2.38;;;0.40;99.90;;;;;;5035573;28;20050;-69
2021/12/20 08:56:38;;;;;;;11.32;3.03;;;0.50;99.90;;;;;;5035981;28;20438;-70
2021/12/20 08:59:06;;;;;;;19.10;3.95;;;0.60;99.90;;;;;;5069749;28;20045;-70
2021/12/20 09:01:32;;;;;;;12.60;2.85;;;0.60;99.90;;;;;;5067217;28;20045;-70
2021/12/20 09:03:59;;;;;;;11.93;2.67;;;1.10;99.90;;;;;;5037162;28;20080;-70
2021/12/20 09:06:26;;;;;;;10.60;2.78;;;0.90;99.90;;;;;;5084524;28;20123;-70
2021/12/20 09:08:55;;;;;;;11.10;2.65;;;1.00;99.90;;;;;;5069662;28;20175;-70
2021/12/20 09:11:23;;;;;;;12.98;3.35;;;1.00;99.90;;;;;;5035609;28;20068;-72
2021/12/20 09:13:49;;;;;;;22.40;4.05;;;1.10;99.90;;;;;;5068884;28;20056;-71
2021/12/20 09:16:15;;;;;;;13.00;3.13;;;1.10;99.90;;;;;;5036191;28;20037;-71
2021/12/20 09:18:41;;;;;;;14.90;4.03;;;1.20;99.90;;;;;;5033304;28;20597;-72
2021/12/20 09:21:10;;;;;;;20.02;6.47;;;1.20;99.90;;;;;;5053888;28;20053;-71
2021/12/20 09:23:36;;;;;;;18.08;6.18;;;1.30;99.90;;;;;;5066787;28;20041;-72
2021/12/20 09:26:02;;;;;;;18.50;4.57;;;1.40;99.90;;;;;;5070091;28;20072;-70
2021/12/20 09:28:28;;;;;;;20.02;4.95;;;1.50;99.90;;;;;;5035200;28;20049;-69
2021/12/20 09:30:54;;;;;;;20.83;4.43;;;2.10;99.90;;;;;;5017986;28;20424;-70
2021/12/20 09:33:20;;;;;;;17.23;6.95;;;1.60;99.90;;;;;;5036365;28;20076;-70
2021/12/20 09:35:46;;;;;;;16.75;3.65;;;1.70;99.90;;;;;;5020803;28;20049;-70
2021/12/20 09:38:16;;;;;;;11.60;3.63;;;1.80;99.90;;;;;;5039894;28;20038;-70
2021/12/20 09:41:01;;;;;;;16.77;3.70;;;1.80;99.90;;;;;;5054187;28;20056;-70
2021/12/20 09:43:28;;;;;;;13.57;3.60;;;1.80;99.90;;;;;;5059048;28;20059;-70
2021/12/20 09:45:56;;;;;;;6.28;2.75;;;2.00;99.90;;;;;;5022531;28;20398;-70
2021/12/20 09:48:22;;;;;;;7.57;3.20;;;1.90;99.90;;;;;;5037447;28;20050;-70
2021/12/20 09:50:48;;;;;;;7.57;3.13;;;2.00;99.90;;;;;;5040126;28;20064;-69
2021/12/20 09:53:14;;;;;;;7.65;3.47;;;3.10;99.90;;;;;;5037070;28;20093;-69
2021/12/20 09:55:47;;;;;;;7.53;2.95;;;2.20;99.90;;;;;;5007331;28;20077;-69
2021/12/20 09:58:13;;;;;;;8.65;3.33;;;2.30;99.90;;;;;;5037970;28;20042;-70
2021/12/20 10:00:40;;;;;;;4.93;2.53;;;2.50;99.90;;;;;;5038996;28;20049;-70
2021/12/20 10:03:06;;;;;;;8.65;3.78;;;2.60;99.90;;;;;;5071813;28;20112;-69
2021/12/20 10:05:34;;;;;;;6.93;3.38;;;2.80;99.90;;;;;;5037600;28;20394;-70
2021/12/20 10:08:09;;;;;;;7.45;3.50;;;3.10;99.90;;;;;;5038016;28;20080;-70
2021/12/20 10:10:47;;;;;;;6.00;2.85;;;3.50;99.90;;;;;;5038035;28;20100;-70
2021/12/20 10:13:29;;;;;;;7.72;2.88;;;4.10;99.90;;;;;;5039679;28;20054;-70
2021/12/20 10:15:59;;;;;;;7.15;3.00;;;4.80;99.90;;;;;;5040005;28;20075;-69
2021/12/20 10:18:27;;;;;;;7.05;2.85;;;5.50;99.90;;;;;;5070002;28;20066;-70
2021/12/20 10:20:55;;;;;;;5.70;3.28;;;6.20;99.90;;;;;;5056388;28;20166;-70
2021/12/20 10:23:24;;;;;;;4.85;2.20;;;6.80;99.90;;;;;;5036875;28;20042;-70
2021/12/20 10:26:20;;;;;;;7.57;3.00;;;7.40;99.90;;;;;;5072862;28;20513;-70
2021/12/20 10:28:48;;;;;;;5.68;2.25;;;8.10;99.90;;;;;;5038356;28;20140;-70
2021/12/20 10:31:20;;;;;;;3.40;2.03;;;8.60;99.90;;;;;;5036230;28;20057;-70
2021/12/20 10:34:01;;;;;;;6.10;2.10;;;9.00;99.90;;;;;;5039360;28;20060;-70
2021/12/20 10:36:27;;;;;;;4.30;1.73;;;9.40;99.90;;;;;;5036598;28;20136;-70
2021/12/20 10:38:58;;;;;;;4.20;2.15;;;9.80;99.90;;;;;;5039929;28;20128;-70
2021/12/20 10:41:36;;;;;;;4.55;2.03;;;10.10;99.90;;;;;;5054916;28;20053;-70
2021/12/20 10:44:14;;;;;;;3.78;1.55;;;10.40;99.90;;;;;;5035999;28;20045;-70
2021/12/20 10:46:47;;;;;;;3.67;1.67;;;10.60;99.90;;;;;;5037283;28;20076;-70
2021/12/20 10:49:18;;;;;;;4.93;2.05;;;10.80;99.90;;;;;;5068532;28;20042;-70
2021/12/20 10:51:49;;;;;;;4.15;1.98;;;11.00;99.90;;;;;;5039392;28;20540;-70
2021/12/20 10:54:19;;;;;;;5.57;2.20;;;11.10;99.90;;;;;;5038648;28;20049;-69
2021/12/20 10:57:05;;;;;;;6.40;2.30;;;11.00;99.90;;;;;;5041301;28;20064;-70
2021/12/20 10:59:36;;;;;;;4.47;2.10;;;10.60;99.90;;;;;;5058312;28;20287;-70
2021/12/20 11:04:47;;;;;;;4.90;2.40;;;9.80;99.90;;;;;;5060081;28;20041;-70
2021/12/20 11:09:50;;;;;;;4.10;1.90;;;9.00;99.90;;;;;;5089874;28;20056;-69
2021/12/20 11:12:30;;;;;;;4.43;1.92;;;8.50;99.90;;;;;;5092266;28;20060;-69
2021/12/20 11:15:00;;;;;;;5.35;2.30;;;7.80;99.90;;;;;;5036127;28;20049;-70
2021/12/20 11:17:28;;;;;;;5.80;2.30;;;7.30;99.90;;;;;;5038316;28;20049;-69
2021/12/20 11:19:56;;;;;;;5.60;2.17;;;7.20;99.90;;;;;;5038250;28;20077;-69
2021/12/20 11:22:24;;;;;;;4.57;2.25;;;6.90;99.90;;;;;;5019512;28;20574;-69
2021/12/20 11:24:54;;;;;;;6.07;2.60;;;6.70;99.90;;;;;;5054468;28;20081;-69
2021/12/20 11:27:25;;;;;;;8.88;2.95;;;6.50;99.90;;;;;;5036827;28;20561;-69
2021/12/20 11:29:53;;;;;;;6.68;3.47;;;6.40;99.90;;;;;;5038465;28;20072;-69
2021/12/20 11:32:21;;;;;;;9.27;3.10;;;6.40;99.90;;;;;;5035459;28;20137;-69
2021/12/20 11:34:47;;;;;;;10.07;3.88;;;6.50;99.90;;;;;;5020889;28;20061;-69
2021/12/20 11:37:15;;;;;;;7.88;3.13;;;6.40;99.90;;;;;;5020554;28;20133;-69
2021/12/20 11:39:42;;;;;;;13.02;4.53;;;6.20;99.90;;;;;;5036458;28;20045;-69
2021/12/20 11:42:09;;;;;;;5.00;2.80;;;6.00;99.90;;;;;;5038960;28;20041;-69
2021/12/20 11:44:37;;;;;;;12.15;3.45;;;5.90;99.90;;;;;;5036067;28;20045;-69
2021/12/20 11:47:09;;;;;;;8.30;2.90;;;5.80;99.90;;;;;;5037566;28;20050;-69
2021/12/20 11:49:36;;;;;;;7.07;3.20;;;5.70;99.90;;;;;;5052535;28;20104;-69
2021/12/20 11:52:17;;;;;;;10.73;3.28;;;5.70;99.90;;;;;;5069934;28;20053;-69
2021/12/20 11:54:49;;;;;;;9.60;3.70;;;5.70;99.90;;;;;;5037529;28;20521;-69
2021/12/20 11:57:32;;;;;;;12.48;3.70;;;5.60;99.90;;;;;;5034225;28;20046;-69
2021/12/20 12:00:02;;;;;;;8.38;3.10;;;5.60;99.90;;;;;;5036893;28;20050;-69
2021/12/20 12:02:31;;;;;;;15.05;4.10;;;5.30;99.90;;;;;;5036774;28;20050;-68
2021/12/20 12:05:02;;;;;;;13.45;3.60;;;5.30;99.90;;;;;;5036822;28;20393;-69
2021/12/20 12:07:31;;;;;;;15.98;4.10;;;5.30;99.90;;;;;;5036695;28;20100;-69
2021/12/20 12:10:15;;;;;;;7.75;3.25;;;5.30;99.90;;;;;;5035169;28;20055;-69
2021/12/20 12:12:43;;;;;;;10.45;3.80;;;5.20;99.90;;;;;;5037951;28;20151;-69
2021/12/20 12:15:21;;;;;;;7.80;3.03;;;5.20;99.90;;;;;;5048268;28;20060;-69
2021/12/20 12:17:58;;;;;;;10.02;2.95;;;5.20;99.90;;;;;;5039689;28;20511;-69
2021/12/20 12:20:48;;;;;;;8.20;2.83;;;5.20;99.90;;;;;;5079336;28;20054;-69
2021/12/20 12:23:17;;;;;;;8.70;2.97;;;5.30;99.90;;;;;;5049555;28;20500;-69
2021/12/20 12:25:58;;;;;;;9.52;4.15;;;5.40;99.90;;;;;;5035092;28;20056;-69
2021/12/20 12:28:26;;;;;;;8.48;3.28;;;5.50;99.90;;;;;;5026525;28;20049;-69
2021/12/20 12:31:12;;;;;;;5.80;2.88;;;5.60;99.90;;;;;;5068922;28;20041;-68
2021/12/20 12:33:40;;;;;;;5.75;3.00;;;5.80;99.90;;;;;;5037317;28;20057;-69
2021/12/20 12:36:08;;;;;;;9.73;3.33;;;6.20;99.90;;;;;;5035687;28;20042;-69
2021/12/20 12:38:37;;;;;;;8.73;3.53;;;6.30;99.90;;;;;;5036169;28;20052;-69
2021/12/20 12:41:09;;;;;;;7.85;2.88;;;6.20;99.90;;;;;;5036449;28;20041;-68
2021/12/20 12:43:55;;;;;;;10.75;3.53;;;6.20;99.90;;;;;;5035586;28;20065;-69
2021/12/20 12:46:36;;;;;;;7.95;3.30;;;6.30;99.90;;;;;;5036361;28;20113;-68
2021/12/20 12:49:25;;;;;;;7.65;3.50;;;7.00;99.90;;;;;;5033952;28;20113;-69
2021/12/20 12:51:54;;;;;;;10.20;3.28;;;7.20;99.90;;;;;;5037862;28;20052;-69
2021/12/20 12:54:42;;;;;;;8.27;3.50;;;7.50;99.90;;;;;;5037753;28;20049;-69
2021/12/20 12:57:11;;;;;;;9.63;3.92;;;7.70;99.90;;;;;;5034018;28;20049;-69
2021/12/20 12:59:56;;;;;;;11.93;3.58;;;7.70;99.90;;;;;;5020297;28;20052;-69
2021/12/20 13:02:38;;;;;;;7.47;2.90;;;7.80;99.90;;;;;;5036194;28;20053;-69
2021/12/20 13:05:06;;;;;;;11.75;3.60;;;7.80;99.90;;;;;;5035323;28;20382;-69
2021/12/20 13:07:50;;;;;;;6.60;3.40;;;7.60;99.90;;;;;;5036473;28;20448;-69
2021/12/20 13:10:18;;;;;;;8.23;3.05;;;7.80;99.90;;;;;;5070161;28;20056;-69